Time;durP1;ratioP1;P1;durP2;ratioP2;P2;SDS_P1;SDS_P2;PMS_P1;PMS_P2;Temp;Humidity;BMP_temperature;BMP_pressure;BME280_temperature;BME280_humidity;BME280_pressure;Samples;Min_cycle;Max_cycle;Signal;HPM_P1;HPM_P2
2023/07/17 00:02:15;;;;;;;4.93;2.72;;;17.60;99.90;;;;;;4912390;29;20491;-34
2023/07/17 00:04:41;;;;;;;3.45;2.35;;;17.60;99.90;;;;;;4911493;29;20071;-34
2023/07/17 00:07:07;;;;;;;3.10;2.47;;;17.60;99.90;;;;;;4914119;29;20032;-34
2023/07/17 00:09:33;;;;;;;3.90;2.42;;;17.60;99.90;;;;;;4909354;29;20566;-34
2023/07/17 00:11:58;;;;;;;4.45;2.22;;;17.50;99.90;;;;;;4913192;29;20079;-33
2023/07/17 00:14:24;;;;;;;4.22;2.78;;;17.50;99.90;;;;;;4913729;29;20561;-34
2023/07/17 00:16:50;;;;;;;4.32;2.42;;;17.50;99.90;;;;;;4908193;29;20422;-34
2023/07/17 00:19:15;;;;;;;3.65;2.90;;;17.50;99.90;;;;;;4913408;29;20478;-34
2023/07/17 00:21:41;;;;;;;4.57;2.30;;;17.50;99.90;;;;;;4913758;29;20079;-34
2023/07/17 00:24:07;;;;;;;3.83;2.45;;;17.50;99.90;;;;;;4913665;29;20032;-34
2023/07/17 00:26:33;;;;;;;4.22;2.58;;;17.50;99.90;;;;;;4912906;29;20527;-34
2023/07/17 00:29:24;;;;;;;4.47;2.90;;;17.50;99.90;;;;;;4912050;29;20266;-34
2023/07/17 00:31:51;;;;;;;3.08;2.47;;;17.50;99.90;;;;;;4908230;29;20492;-34
2023/07/17 00:34:21;;;;;;;4.45;2.60;;;17.50;99.90;;;;;;4908810;29;20067;-34
2023/07/17 00:36:47;;;;;;;3.42;2.47;;;17.50;99.90;;;;;;4908435;29;20044;-33
2023/07/17 00:39:18;;;;;;;5.35;2.55;;;17.50;99.90;;;;;;4918774;29;20044;-34
2023/07/17 00:41:45;;;;;;;4.78;2.70;;;17.50;99.90;;;;;;4909164;29;20055;-34
2023/07/17 00:44:10;;;;;;;5.18;2.85;;;17.50;99.90;;;;;;4907456;29;20036;-33
2023/07/17 00:46:36;;;;;;;5.55;2.33;;;17.50;99.90;;;;;;4910581;29;20453;-33
2023/07/17 00:49:03;;;;;;;3.28;2.45;;;17.50;99.90;;;;;;4913378;29;20036;-33
2023/07/17 00:51:31;;;;;;;4.93;2.70;;;17.50;99.90;;;;;;4910934;29;20052;-34
2023/07/17 00:53:57;;;;;;;4.43;2.40;;;17.50;99.90;;;;;;4909056;29;20401;-33
2023/07/17 00:56:24;;;;;;;5.28;2.72;;;17.50;99.90;;;;;;4912280;29;20067;-33
2023/07/17 00:58:50;;;;;;;3.28;2.58;;;17.50;99.90;;;;;;4911899;29;20040;-33
2023/07/17 01:01:16;;;;;;;3.70;2.80;;;17.50;99.90;;;;;;4911861;29;20486;-33
2023/07/17 01:03:42;;;;;;;4.57;2.63;;;17.40;99.90;;;;;;4895686;29;20040;-33
2023/07/17 01:06:08;;;;;;;4.80;2.65;;;17.40;99.90;;;;;;4912267;29;20040;-33
2023/07/17 01:08:34;;;;;;;6.63;2.88;;;17.40;99.90;;;;;;4912204;29;20036;-33
2023/07/17 01:11:00;;;;;;;4.55;2.60;;;17.40;99.90;;;;;;4912203;29;20040;-33
2023/07/17 01:13:25;;;;;;;6.65;3.03;;;17.40;99.90;;;;;;4912442;29;20099;-32
2023/07/17 01:15:51;;;;;;;4.47;2.95;;;17.30;99.90;;;;;;4912348;29;20481;-32
2023/07/17 01:18:17;;;;;;;4.93;2.55;;;17.30;99.90;;;;;;4912658;29;20032;-33
2023/07/17 01:20:44;;;;;;;4.75;2.30;;;17.30;99.90;;;;;;4910575;29;20127;-32
2023/07/17 01:23:09;;;;;;;3.20;2.25;;;17.20;99.90;;;;;;4913695;29;20036;-31
2023/07/17 01:25:35;;;;;;;5.30;2.78;;;17.20;99.90;;;;;;4906642;29;20378;-31
2023/07/17 01:28:01;;;;;;;5.65;2.47;;;17.10;99.90;;;;;;4917310;29;20541;-32
2023/07/17 01:30:27;;;;;;;5.88;2.88;;;17.10;99.90;;;;;;4913665;29;20091;-31
2023/07/17 01:32:53;;;;;;;6.60;2.67;;;17.00;99.90;;;;;;4926626;29;20040;-32
2023/07/17 01:35:18;;;;;;;5.60;2.80;;;17.00;99.90;;;;;;4926238;29;20127;-32
2023/07/17 01:37:44;;;;;;;5.13;2.60;;;17.00;99.90;;;;;;4913309;29;20573;-32
2023/07/17 01:40:11;;;;;;;6.45;2.67;;;16.90;99.90;;;;;;4913685;29;20040;-32
2023/07/17 01:42:37;;;;;;;7.75;2.97;;;16.90;99.90;;;;;;4919805;29;20044;-32
2023/07/17 01:45:03;;;;;;;5.63;2.58;;;16.90;99.90;;;;;;4920088;29;20036;-32
2023/07/17 01:47:30;;;;;;;5.43;2.25;;;16.80;99.90;;;;;;4913183;29;20044;-31
2023/07/17 01:49:55;;;;;;;5.90;2.25;;;16.80;99.90;;;;;;4906214;29;20499;-31
2023/07/17 01:52:21;;;;;;;5.47;2.75;;;16.70;99.90;;;;;;4926429;29;20081;-32
2023/07/17 01:54:47;;;;;;;4.22;2.40;;;16.80;99.90;;;;;;4913789;29;20119;-32
2023/07/17 01:57:13;;;;;;;5.05;2.90;;;16.70;99.90;;;;;;4896278;29;20040;-32
2023/07/17 01:59:38;;;;;;;5.15;2.65;;;16.70;99.90;;;;;;4913787;29;20615;-32
2023/07/17 02:02:05;;;;;;;4.00;2.22;;;16.60;99.90;;;;;;4913382;29;20481;-32
2023/07/17 02:04:31;;;;;;;4.07;2.53;;;16.60;99.90;;;;;;4915895;29;20040;-31
2023/07/17 02:06:57;;;;;;;5.13;2.28;;;16.50;99.90;;;;;;4922543;29;20092;-32
2023/07/17 02:09:23;;;;;;;6.57;2.63;;;16.60;99.90;;;;;;4919042;29;20036;-31
2023/07/17 02:11:49;;;;;;;5.63;2.50;;;16.50;99.90;;;;;;4917097;29;20417;-31
2023/07/17 02:14:14;;;;;;;4.22;2.40;;;16.50;99.90;;;;;;4924428;29;20035;-32
2023/07/17 02:16:40;;;;;;;5.38;2.70;;;16.50;99.90;;;;;;4926543;29;20051;-31
2023/07/17 02:19:06;;;;;;;5.88;2.60;;;16.50;99.90;;;;;;4930453;29;20397;-31
2023/07/17 02:21:32;;;;;;;7.10;3.00;;;16.50;99.90;;;;;;4916288;29;20044;-31
2023/07/17 02:23:58;;;;;;;4.68;2.42;;;16.50;99.90;;;;;;4902430;29;20048;-32
2023/07/17 02:26:24;;;;;;;7.28;2.60;;;16.50;99.90;;;;;;4918637;29;20600;-31
2023/07/17 02:28:50;;;;;;;4.32;2.38;;;16.40;99.90;;;;;;4935799;29;20485;-31
2023/07/17 02:31:15;;;;;;;6.15;2.90;;;16.40;99.90;;;;;;4935488;29;20118;-32
2023/07/17 02:33:41;;;;;;;6.05;3.05;;;16.40;99.90;;;;;;4933952;29;20040;-32
2023/07/17 02:36:07;;;;;;;5.50;2.63;;;16.40;99.90;;;;;;4900826;29;20055;-32
2023/07/17 02:38:32;;;;;;;5.72;2.85;;;16.30;99.90;;;;;;5043174;23;20029;-86
2023/07/17 02:40:58;;;;;;;6.15;2.70;;;16.30;99.90;;;;;;4920651;23;20055;-32
2023/07/17 02:43:24;;;;;;;8.50;3.20;;;16.30;99.90;;;;;;4923358;29;20370;-32
2023/07/17 02:45:49;;;;;;;5.03;2.92;;;16.20;99.90;;;;;;4935114;29;20039;-32
2023/07/17 02:48:15;;;;;;;3.00;2.33;;;16.20;99.90;;;;;;4921543;29;20044;-32
2023/07/17 02:50:41;;;;;;;6.25;3.08;;;16.20;99.90;;;;;;4906919;29;20040;-32
2023/07/17 02:53:08;;;;;;;6.55;2.83;;;16.10;99.90;;;;;;4913908;29;20044;-32
2023/07/17 02:55:34;;;;;;;6.78;2.90;;;16.10;99.90;;;;;;4916169;29;20058;-31
2023/07/17 02:57:59;;;;;;;6.13;3.03;;;16.10;99.90;;;;;;4916542;29;20122;-32
2023/07/17 03:00:25;;;;;;;7.43;3.45;;;16.00;99.90;;;;;;4915489;29;20059;-32
2023/07/17 03:02:51;;;;;;;8.43;3.28;;;16.00;99.90;;;;;;4916523;29;20043;-32
2023/07/17 03:05:17;;;;;;;6.28;2.75;;;16.00;99.90;;;;;;4926336;29;20120;-32
2023/07/17 03:07:45;;;;;;;6.50;3.70;;;16.00;99.90;;;;;;4915424;29;20044;-32
2023/07/17 03:10:12;;;;;;;5.60;3.63;;;15.90;99.90;;;;;;4925838;29;20085;-31
2023/07/17 03:12:38;;;;;;;6.03;3.05;;;16.00;99.90;;;;;;4916129;29;20048;-31
2023/07/17 03:15:05;;;;;;;4.90;3.22;;;15.90;99.90;;;;;;4915201;29;20450;-34
2023/07/17 03:17:31;;;;;;;5.82;2.58;;;15.90;99.90;;;;;;4914127;29;20127;-34
2023/07/17 03:19:58;;;;;;;6.60;3.40;;;15.90;99.90;;;;;;4906110;29;20055;-34
2023/07/17 03:22:23;;;;;;;5.63;2.97;;;15.90;99.90;;;;;;4914398;29;20040;-38
2023/07/17 03:24:49;;;;;;;5.00;2.90;;;15.80;99.90;;;;;;4908877;29;20084;-35
2023/07/17 03:27:15;;;;;;;6.38;3.13;;;15.70;99.90;;;;;;4907622;29;20044;-34
2023/07/17 03:29:41;;;;;;;7.90;3.22;;;15.70;99.90;;;;;;4910825;29;20194;-35
2023/07/17 03:32:07;;;;;;;6.45;3.47;;;15.70;99.90;;;;;;4914366;29;20143;-35
2023/07/17 03:34:33;;;;;;;7.50;3.35;;;15.60;99.90;;;;;;4914123;29;20490;-35
2023/07/17 03:36:59;;;;;;;5.72;3.65;;;15.60;99.90;;;;;;4913098;29;20064;-35
2023/07/17 03:39:24;;;;;;;5.70;3.45;;;15.60;99.90;;;;;;4910177;29;20048;-35
2023/07/17 03:41:50;;;;;;;6.07;3.50;;;15.50;99.90;;;;;;4906319;29;20404;-38
2023/07/17 03:44:15;;;;;;;6.25;3.92;;;15.50;99.90;;;;;;4910556;29;20044;-35
2023/07/17 03:46:41;;;;;;;5.50;3.85;;;15.50;99.90;;;;;;4912899;29;20036;-34
2023/07/17 03:49:07;;;;;;;4.68;3.80;;;15.40;99.90;;;;;;4909495;29;20145;-34
2023/07/17 03:51:34;;;;;;;7.07;3.65;;;15.40;99.90;;;;;;4890960;29;20338;-34
2023/07/17 03:53:59;;;;;;;6.18;3.67;;;15.40;99.90;;;;;;4906767;29;20048;-34
2023/07/17 03:56:25;;;;;;;7.50;4.18;;;15.30;99.90;;;;;;4912292;29;20102;-34
2023/07/17 03:58:51;;;;;;;6.90;3.92;;;15.40;99.90;;;;;;4913424;29;20032;-35
2023/07/17 04:01:16;;;;;;;6.18;3.80;;;15.40;99.90;;;;;;4896702;29;20040;-37
2023/07/17 04:03:42;;;;;;;5.55;3.55;;;15.30;99.90;;;;;;4912803;29;20063;-34
2023/07/17 04:06:08;;;;;;;7.53;3.97;;;15.30;99.90;;;;;;4911679;29;20557;-34
2023/07/17 04:08:34;;;;;;;7.18;4.30;;;15.30;99.90;;;;;;4905552;29;20557;-34
2023/07/17 04:10:59;;;;;;;5.32;3.83;;;15.30;99.90;;;;;;4910903;29;20024;-34
2023/07/17 04:13:25;;;;;;;7.40;4.13;;;15.30;99.90;;;;;;4911878;29;20055;-34
2023/07/17 04:15:51;;;;;;;7.28;4.22;;;15.30;99.90;;;;;;4917675;29;20036;-38
2023/07/17 04:18:16;;;;;;;5.07;3.85;;;15.40;99.90;;;;;;4912559;29;20044;-34
2023/07/17 04:20:42;;;;;;;8.93;3.60;;;15.30;99.90;;;;;;4908399;29;20044;-34
2023/07/17 04:23:08;;;;;;;4.72;3.53;;;15.30;99.90;;;;;;4914845;29;20099;-34
2023/07/17 04:25:37;;;;;;;7.65;3.97;;;15.30;99.90;;;;;;4894476;29;20036;-34
2023/07/17 04:28:03;;;;;;;8.90;3.95;;;15.30;99.90;;;;;;4908232;29;20040;-38
2023/07/17 04:30:29;;;;;;;4.82;3.90;;;15.40;99.90;;;;;;4908057;29;20055;-38
2023/07/17 04:32:55;;;;;;;7.47;4.18;;;15.30;99.90;;;;;;4911101;29;20040;-34
2023/07/17 04:35:21;;;;;;;6.22;3.85;;;15.40;99.90;;;;;;4913294;29;20043;-34
2023/07/17 04:37:46;;;;;;;5.45;4.20;;;15.40;99.90;;;;;;4913450;29;20051;-34
2023/07/17 04:40:12;;;;;;;6.25;4.30;;;15.40;99.90;;;;;;4898616;29;20044;-33
2023/07/17 04:42:38;;;;;;;5.88;4.60;;;15.40;99.90;;;;;;4907508;29;20047;-33
2023/07/17 04:45:05;;;;;;;5.78;3.72;;;15.40;99.90;;;;;;4899074;29;20045;-31
2023/07/17 04:47:32;;;;;;;6.65;4.63;;;15.40;99.90;;;;;;4910089;29;20397;-32
2023/07/17 04:49:58;;;;;;;7.40;4.10;;;15.40;99.90;;;;;;4906911;29;20039;-32
2023/07/17 04:52:23;;;;;;;6.85;4.38;;;15.40;99.90;;;;;;4906815;29;20541;-32
2023/07/17 04:54:49;;;;;;;4.75;3.78;;;15.50;99.90;;;;;;4888605;29;20079;-32
2023/07/17 04:57:15;;;;;;;9.95;4.70;;;15.50;99.90;;;;;;4913668;29;20092;-32
2023/07/17 04:59:40;;;;;;;7.60;3.97;;;15.50;99.90;;;;;;4913769;29;20051;-32
2023/07/17 05:02:06;;;;;;;9.18;4.47;;;15.50;99.90;;;;;;4912275;29;20455;-31
2023/07/17 05:04:32;;;;;;;5.47;4.18;;;15.60;99.90;;;;;;4923854;29;20130;-32
2023/07/17 05:06:58;;;;;;;6.50;3.90;;;15.60;99.90;;;;;;4921123;29;20079;-32
2023/07/17 05:09:24;;;;;;;8.73;4.38;;;15.60;99.90;;;;;;4918367;29;20107;-32
2023/07/17 05:11:50;;;;;;;9.13;4.18;;;15.60;99.90;;;;;;4910181;29;20063;-32
2023/07/17 05:14:16;;;;;;;7.40;4.30;;;15.70;99.90;;;;;;4910893;29;20096;-33
2023/07/17 05:16:42;;;;;;;7.78;4.05;;;15.70;99.90;;;;;;4912699;29;20486;-32
2023/07/17 05:19:08;;;;;;;7.85;4.40;;;15.70;99.90;;;;;;4897805;29;20130;-31
2023/07/17 05:21:33;;;;;;;11.35;4.18;;;15.80;99.90;;;;;;4914222;29;20044;-30
2023/07/17 05:24:00;;;;;;;5.90;4.20;;;15.80;99.90;;;;;;4913933;29;20449;-31
2023/07/17 05:26:25;;;;;;;8.50;4.30;;;15.90;99.90;;;;;;4896905;29;20052;-31
2023/07/17 05:28:51;;;;;;;5.97;3.67;;;15.90;99.90;;;;;;4897083;29;20482;-31
2023/07/17 05:31:17;;;;;;;7.30;4.28;;;15.90;99.90;;;;;;4896922;29;20047;-31
2023/07/17 05:33:43;;;;;;;8.90;4.43;;;16.00;99.90;;;;;;4913999;29;20044;-31
2023/07/17 05:36:12;;;;;;;5.55;4.03;;;16.10;99.90;;;;;;4914455;29;20516;-31
2023/07/17 05:38:37;;;;;;;6.82;3.92;;;16.10;99.90;;;;;;4915419;29;20080;-31
2023/07/17 05:41:03;;;;;;;9.18;4.13;;;16.10;99.90;;;;;;4929427;29;20078;-30
2023/07/17 05:43:32;;;;;;;8.63;4.43;;;16.20;99.90;;;;;;4931295;29;20036;-31
2023/07/17 05:45:58;;;;;;;6.90;4.22;;;16.30;99.90;;;;;;4915394;29;20112;-31
2023/07/17 05:48:24;;;;;;;7.85;4.00;;;16.30;99.90;;;;;;4913716;29;20044;-30
2023/07/17 05:50:50;;;;;;;10.50;4.28;;;16.40;99.90;;;;;;4912994;29;20131;-31
2023/07/17 05:53:16;;;;;;;8.63;4.25;;;16.40;99.90;;;;;;4896055;29;20048;-31
2023/07/17 05:55:43;;;;;;;8.27;4.18;;;16.50;99.90;;;;;;4912797;29;20095;-30
2023/07/17 05:58:09;;;;;;;7.18;4.05;;;16.50;99.90;;;;;;4912856;29;20040;-31
2023/07/17 06:00:35;;;;;;;9.18;4.80;;;16.60;99.90;;;;;;4913568;29;20145;-31
2023/07/17 06:03:01;;;;;;;6.78;4.55;;;16.70;99.90;;;;;;4917445;29;20132;-31
2023/07/17 06:05:26;;;;;;;8.05;4.18;;;16.80;99.90;;;;;;4917867;29;20035;-31
2023/07/17 06:07:52;;;;;;;10.57;4.30;;;16.80;99.90;;;;;;4917306;29;20131;-31
2023/07/17 06:10:18;;;;;;;9.25;4.80;;;16.90;99.90;;;;;;4917684;29;20037;-31
2023/07/17 06:12:44;;;;;;;8.95;4.50;;;17.00;99.90;;;;;;4917597;29;20115;-31
2023/07/17 06:15:11;;;;;;;8.55;4.07;;;17.00;99.90;;;;;;4917510;29;20147;-31
2023/07/17 06:17:37;;;;;;;10.23;4.88;;;17.10;99.90;;;;;;4916887;29;20095;-31
2023/07/17 06:20:05;;;;;;;12.82;5.50;;;17.10;99.90;;;;;;4917355;29;20497;-31
2023/07/17 06:22:30;;;;;;;9.32;4.90;;;17.20;99.90;;;;;;4916523;29;20048;-31
2023/07/17 06:24:56;;;;;;;11.27;4.80;;;17.30;99.90;;;;;;4916907;29;20096;-31
2023/07/17 06:27:22;;;;;;;9.38;4.85;;;17.30;99.90;;;;;;4916984;29;20045;-31
2023/07/17 06:29:47;;;;;;;12.48;4.72;;;17.40;99.90;;;;;;4919804;29;20040;-31
2023/07/17 06:32:13;;;;;;;9.23;5.05;;;17.40;99.90;;;;;;4928344;29;20049;-35
2023/07/17 06:34:41;;;;;;;11.25;5.55;;;17.50;99.90;;;;;;4917002;29;20040;-35
2023/07/17 06:37:07;;;;;;;12.93;5.55;;;17.50;99.90;;;;;;4910288;29;20040;-35
2023/07/17 06:39:33;;;;;;;10.65;5.45;;;17.50;99.90;;;;;;4895082;29;20111;-36
2023/07/17 06:41:59;;;;;;;11.07;5.50;;;17.60;99.90;;;;;;4897465;29;20561;-38
2023/07/17 06:44:24;;;;;;;9.88;6.05;;;17.70;99.90;;;;;;4907906;29;20131;-34
2023/07/17 06:46:50;;;;;;;13.07;6.10;;;17.70;99.90;;;;;;4916390;29;20043;-35
2023/07/17 06:49:16;;;;;;;9.23;5.32;;;17.80;99.90;;;;;;4910057;29;20040;-35
2023/07/17 06:51:42;;;;;;;12.90;5.70;;;17.90;99.90;;;;;;4891161;29;20048;-35
2023/07/17 06:54:07;;;;;;;9.57;5.35;;;18.10;99.90;;;;;;4909090;29;20040;-35
2023/07/17 06:56:33;;;;;;;13.85;5.40;;;18.10;99.90;;;;;;4913220;29;20071;-37
2023/07/17 06:59:00;;;;;;;11.02;6.05;;;18.10;99.90;;;;;;4914607;29;20047;-35
2023/07/17 07:01:25;;;;;;;12.68;5.90;;;18.10;99.90;;;;;;4911323;29;20100;-35
2023/07/17 07:03:51;;;;;;;12.15;5.82;;;18.20;99.90;;;;;;4910206;29;20477;-38
2023/07/17 07:06:17;;;;;;;12.82;6.13;;;18.30;99.90;;;;;;4909135;29;20043;-34
2023/07/17 07:08:42;;;;;;;10.65;5.63;;;18.20;99.90;;;;;;4914390;29;20047;-34
2023/07/17 07:11:10;;;;;;;11.93;5.70;;;18.30;99.90;;;;;;4909139;29;20509;-35
2023/07/17 07:13:35;;;;;;;11.02;5.45;;;18.50;99.90;;;;;;4910946;29;20043;-38
2023/07/17 07:16:01;;;;;;;11.15;5.88;;;18.50;99.90;;;;;;4897365;29;20548;-35
2023/07/17 07:18:27;;;;;;;13.60;6.63;;;18.60;99.90;;;;;;4909136;29;20052;-34
2023/07/17 07:20:52;;;;;;;12.18;6.00;;;18.70;99.90;;;;;;4911619;29;20049;-34
2023/07/17 07:23:19;;;;;;;8.45;5.43;;;18.70;99.90;;;;;;4909965;29;20047;-35
2023/07/17 07:25:45;;;;;;;13.25;5.90;;;18.70;99.90;;;;;;4894746;29;20051;-35
2023/07/17 07:28:12;;;;;;;10.35;5.63;;;18.80;99.90;;;;;;4914048;29;20076;-37
2023/07/17 07:30:38;;;;;;;10.95;5.38;;;19.00;99.90;;;;;;4912121;29;20050;-35
2023/07/17 07:33:05;;;;;;;12.13;5.70;;;19.10;99.90;;;;;;4910570;29;20426;-36
2023/07/17 07:35:31;;;;;;;11.43;6.00;;;19.20;99.90;;;;;;4909910;29;20119;-34
2023/07/17 07:37:57;;;;;;;9.40;5.80;;;19.40;99.90;;;;;;4913565;29;20120;-35
2023/07/17 07:40:23;;;;;;;9.35;5.18;;;19.50;99.90;;;;;;4912693;29;20071;-36
2023/07/17 07:42:49;;;;;;;8.65;5.40;;;19.70;99.90;;;;;;4910436;29;20048;-37
2023/07/17 07:45:16;;;;;;;8.85;5.90;;;19.80;99.90;;;;;;4903980;29;20443;-38
2023/07/17 07:47:42;;;;;;;8.70;5.47;;;19.80;99.90;;;;;;4914611;29;20044;-35
2023/07/17 07:50:10;;;;;;;10.35;5.55;;;19.60;99.90;;;;;;4913175;29;20309;-35
2023/07/17 07:52:36;;;;;;;10.48;5.00;;;19.80;99.90;;;;;;4911529;29;20067;-35
2023/07/17 07:55:06;;;;;;;11.90;4.53;;;19.90;99.90;;;;;;4913501;29;20446;-36
2023/07/17 07:57:32;;;;;;;7.68;4.63;;;19.90;99.90;;;;;;4912520;29;20375;-35
2023/07/17 07:59:57;;;;;;;13.95;5.50;;;19.80;99.90;;;;;;4913600;29;20043;-35
2023/07/17 08:02:23;;;;;;;10.60;4.97;;;19.80;99.90;;;;;;4910531;29;20107;-36
2023/07/17 08:04:50;;;;;;;11.00;5.07;;;19.70;99.90;;;;;;4915950;29;20832;-36
2023/07/17 08:07:15;;;;;;;11.20;4.95;;;19.90;99.90;;;;;;4910448;29;20036;-33
2023/07/17 08:09:41;;;;;;;10.77;5.43;;;20.00;99.90;;;;;;4912349;29;20040;-34
2023/07/17 08:12:07;;;;;;;10.70;5.07;;;20.20;99.90;;;;;;4911068;29;20504;-33
2023/07/17 08:14:34;;;;;;;10.20;4.50;;;20.50;99.90;;;;;;4903237;29;20332;-33
2023/07/17 08:16:59;;;;;;;11.18;4.75;;;20.50;99.90;;;;;;4909437;29;20505;-33
2023/07/17 08:19:25;;;;;;;8.48;4.88;;;20.50;99.90;;;;;;4913270;29;20083;-33
2023/07/17 08:21:51;;;;;;;7.63;4.38;;;20.80;99.90;;;;;;4914595;29;20040;-33
2023/07/17 08:24:16;;;;;;;10.13;4.68;;;20.90;99.90;;;;;;4912499;29;20047;-33
2023/07/17 08:26:43;;;;;;;8.82;4.10;;;21.00;99.90;;;;;;4912193;29;20224;-33
2023/07/17 08:29:10;;;;;;;6.55;3.92;;;21.20;99.90;;;;;;4911007;29;20267;-33
2023/07/17 08:31:36;;;;;;;8.60;3.90;;;21.10;99.90;;;;;;4906809;29;20120;-33
2023/07/17 08:34:03;;;;;;;10.35;4.50;;;21.30;99.90;;;;;;4913213;29;20565;-33
2023/07/17 08:36:30;;;;;;;7.88;4.07;;;21.20;99.90;;;;;;4910880;29;20055;-35
2023/07/17 08:38:55;;;;;;;11.50;4.93;;;21.00;99.90;;;;;;4912493;29;20476;-33
2023/07/17 08:41:21;;;;;;;9.38;4.88;;;20.80;99.90;;;;;;4894953;29;20395;-33
2023/07/17 08:43:49;;;;;;;10.02;4.78;;;20.70;99.90;;;;;;4908331;29;20051;-33
2023/07/17 08:46:14;;;;;;;10.75;4.72;;;20.60;99.90;;;;;;4908417;29;20028;-33
2023/07/17 08:48:43;;;;;;;11.63;5.03;;;20.30;99.90;;;;;;4911307;29;20087;-33
2023/07/17 08:51:12;;;;;;;8.82;4.55;;;20.30;99.90;;;;;;4907707;29;20402;-33
2023/07/17 08:53:44;;;;;;;10.05;4.80;;;20.50;99.90;;;;;;4905915;29;20079;-33
2023/07/17 08:56:11;;;;;;;14.45;5.80;;;20.50;99.90;;;;;;4899689;29;20090;-34
2023/07/17 08:58:40;;;;;;;9.80;4.90;;;20.40;99.90;;;;;;4912209;29;20536;-33
2023/07/17 09:01:07;;;;;;;9.40;4.22;;;20.60;99.90;;;;;;4889599;29;20513;-33
2023/07/17 09:03:34;;;;;;;9.10;5.15;;;20.80;99.90;;;;;;4894517;29;20048;-33
2023/07/17 09:06:04;;;;;;;10.00;5.30;;;20.80;99.90;;;;;;4894710;29;20040;-33
2023/07/17 09:08:30;;;;;;;8.82;3.88;;;20.70;99.90;;;;;;4911459;29;20088;-33
2023/07/17 09:11:09;;;;;;;7.60;4.55;;;20.50;99.90;;;;;;4910882;29;20043;-33
2023/07/17 09:13:45;;;;;;;9.40;4.45;;;20.50;99.90;;;;;;4909136;29;20051;-33
2023/07/17 09:16:15;;;;;;;11.15;4.47;;;20.60;99.90;;;;;;4903892;29;20040;-33
2023/07/17 09:18:41;;;;;;;10.73;4.28;;;20.80;99.90;;;;;;4905393;29;20062;-33
2023/07/17 09:21:08;;;;;;;6.28;4.18;;;21.20;99.90;;;;;;4907160;29;20046;-33
2023/07/17 09:23:40;;;;;;;6.85;4.03;;;21.30;99.90;;;;;;4910717;29;20044;-33
2023/07/17 09:26:06;;;;;;;9.00;4.30;;;21.20;99.90;;;;;;4912382;29;20164;-33
2023/07/17 09:29:02;;;;;;;6.03;4.18;;;21.00;99.90;;;;;;4891065;29;20147;-33
2023/07/17 09:31:30;;;;;;;10.65;5.25;;;20.70;99.90;;;;;;4910369;29;20036;-33
2023/07/17 09:33:59;;;;;;;10.07;4.75;;;20.30;99.90;;;;;;4887404;29;20056;-32
2023/07/17 09:36:25;;;;;;;8.38;4.60;;;19.90;99.90;;;;;;4911907;29;20526;-33
2023/07/17 09:38:53;;;;;;;8.70;4.85;;;19.70;99.90;;;;;;4909676;29;20036;-33
2023/07/17 09:41:28;;;;;;;9.18;4.68;;;20.10;99.90;;;;;;4894607;29;20048;-33
2023/07/17 09:44:16;;;;;;;8.27;3.75;;;20.80;99.90;;;;;;4908580;29;20036;-33
2023/07/17 09:46:43;;;;;;;8.55;4.25;;;20.80;99.90;;;;;;4907661;29;20036;-33
2023/07/17 09:49:09;;;;;;;6.78;4.32;;;20.50;99.90;;;;;;4904481;29;20032;-33
2023/07/17 09:51:35;;;;;;;7.35;4.20;;;20.50;99.90;;;;;;4894157;29;20059;-33
2023/07/17 09:54:02;;;;;;;7.85;4.55;;;20.50;99.90;;;;;;4908260;29;20041;-33
2023/07/17 09:56:30;;;;;;;6.55;3.80;;;20.90;99.90;;;;;;4909531;29;20040;-33
2023/07/17 09:59:08;;;;;;;11.77;4.40;;;21.20;99.90;;;;;;4882523;29;20231;-32
2023/07/17 10:01:36;;;;;;;8.27;4.03;;;21.40;99.90;;;;;;4916397;29;20039;-33
2023/07/17 10:04:05;;;;;;;6.57;4.10;;;21.60;99.90;;;;;;4913770;29;20264;-34
2023/07/17 10:06:32;;;;;;;7.05;4.20;;;21.90;99.90;;;;;;4919992;29;20044;-36
2023/07/17 10:08:59;;;;;;;6.95;4.05;;;22.50;99.90;;;;;;4913398;29;20052;-33
2023/07/17 10:11:25;;;;;;;6.75;4.20;;;22.80;99.90;;;;;;4905161;29;20039;-33
2023/07/17 10:13:51;;;;;;;6.45;4.13;;;23.10;99.90;;;;;;4909026;29;20126;-33
2023/07/17 10:16:18;;;;;;;9.48;3.88;;;23.40;99.90;;;;;;4907425;29;20048;-33
2023/07/17 10:18:48;;;;;;;7.07;4.57;;;23.50;99.90;;;;;;4895073;29;20100;-33
2023/07/17 10:21:16;;;;;;;6.38;4.07;;;23.60;99.90;;;;;;4906794;29;20498;-33
2023/07/17 10:23:43;;;;;;;8.07;4.43;;;23.40;99.90;;;;;;4912220;29;20036;-33
2023/07/17 10:26:11;;;;;;;8.00;3.63;;;23.20;99.90;;;;;;4916145;29;20040;-33
2023/07/17 10:28:37;;;;;;;7.68;3.92;;;22.90;99.90;;;;;;4916184;29;20041;-33
2023/07/17 10:31:15;;;;;;;6.35;3.85;;;23.00;99.90;;;;;;4915008;29;20506;-33
2023/07/17 10:33:49;;;;;;;8.25;4.00;;;22.90;99.90;;;;;;4907291;29;20051;-33
2023/07/17 10:36:15;;;;;;;5.53;3.67;;;22.70;99.90;;;;;;4912742;29;20157;-34
2023/07/17 10:38:42;;;;;;;7.30;3.63;;;22.20;99.90;;;;;;4912626;29;20028;-34
2023/07/17 10:41:13;;;;;;;8.13;3.75;;;22.50;99.90;;;;;;4912528;29;20047;-34
2023/07/17 10:43:53;;;;;;;5.13;3.20;;;23.00;99.90;;;;;;4891206;29;20048;-33
2023/07/17 10:46:18;;;;;;;6.40;3.13;;;23.50;99.90;;;;;;4909351;29;20040;-34
2023/07/17 10:48:44;;;;;;;7.30;3.33;;;23.40;99.90;;;;;;4906830;29;20037;-33
2023/07/17 10:51:10;;;;;;;5.03;2.83;;;23.60;99.90;;;;;;4918166;29;20036;-33
2023/07/17 10:53:36;;;;;;;6.53;3.28;;;23.40;99.90;;;;;;4918895;29;20509;-33
2023/07/17 10:56:01;;;;;;;6.47;2.97;;;23.30;99.90;;;;;;4916471;29;20086;-34
2023/07/17 10:58:27;;;;;;;6.68;2.80;;;23.70;99.90;;;;;;4916593;29;20044;-34
2023/07/17 11:00:54;;;;;;;5.25;2.75;;;23.70;97.60;;;;;;4908350;29;20608;-34
2023/07/17 11:03:23;;;;;;;6.75;2.78;;;24.00;96.10;;;;;;4902776;29;20528;-34
2023/07/17 11:05:49;;;;;;;6.20;2.90;;;24.00;92.60;;;;;;4906397;29;20036;-34
2023/07/17 11:08:14;;;;;;;4.57;2.47;;;24.20;93.30;;;;;;4911547;29;20067;-37
2023/07/17 11:10:42;;;;;;;5.97;2.45;;;24.40;93.20;;;;;;4913228;29;20029;-35
2023/07/17 11:13:09;;;;;;;4.78;2.42;;;24.50;90.40;;;;;;4910406;29;20549;-35
2023/07/17 11:15:36;;;;;;;5.97;2.50;;;24.70;90.00;;;;;;4898444;29;20048;-34
2023/07/17 11:18:04;;;;;;;4.78;2.20;;;24.70;88.40;;;;;;4913000;29;20484;-35
2023/07/17 11:20:30;;;;;;;4.88;2.83;;;24.50;87.60;;;;;;4904304;29;20040;-34
2023/07/17 11:22:56;;;;;;;4.55;2.63;;;24.50;86.70;;;;;;4915549;29;20045;-35
2023/07/17 11:25:27;;;;;;;3.95;2.47;;;24.50;84.60;;;;;;4913342;29;20044;-36
2023/07/17 11:27:54;;;;;;;4.03;2.17;;;24.20;83.10;;;;;;4897312;29;20409;-34
2023/07/17 11:30:29;;;;;;;4.38;2.25;;;23.80;82.20;;;;;;4892016;29;20376;-34
2023/07/17 11:32:57;;;;;;;4.15;2.58;;;24.20;77.50;;;;;;4911868;29;20036;-35
2023/07/17 11:35:43;;;;;;;4.85;2.33;;;24.60;81.00;;;;;;4912504;29;20071;-35
2023/07/17 11:38:14;;;;;;;5.05;2.35;;;25.00;80.70;;;;;;4909137;29;20032;-34
2023/07/17 11:40:50;;;;;;;3.63;2.55;;;25.40;78.50;;;;;;4902176;29;20514;-34
2023/07/17 11:43:25;;;;;;;6.20;2.10;;;25.20;73.20;;;;;;4915297;29;20119;-34
2023/07/17 11:45:52;;;;;;;2.92;2.17;;;25.00;74.40;;;;;;4913258;29;20062;-34
2023/07/17 11:48:18;;;;;;;6.07;2.10;;;25.00;73.90;;;;;;4906163;29;20032;-34
2023/07/17 11:50:44;;;;;;;3.25;1.70;;;24.80;74.40;;;;;;4914687;29;20437;-34
2023/07/17 11:53:13;;;;;;;4.65;1.52;;;24.50;73.30;;;;;;4912765;29;20032;-34
2023/07/17 11:55:41;;;;;;;5.22;2.15;;;24.10;72.70;;;;;;4914415;29;20182;-34
2023/07/17 11:58:19;;;;;;;3.55;2.15;;;24.20;71.80;;;;;;4916512;29;20493;-34
2023/07/17 12:00:46;;;;;;;3.83;2.20;;;24.90;73.20;;;;;;4905653;29;20036;-34
2023/07/17 12:03:13;;;;;;;3.67;1.83;;;25.30;71.80;;;;;;4908009;29;20048;-34
2023/07/17 12:05:39;;;;;;;5.55;1.95;;;25.40;70.90;;;;;;4911987;29;20454;-34
2023/07/17 12:08:06;;;;;;;3.95;2.00;;;25.70;70.30;;;;;;4905155;29;20048;-34
2023/07/17 12:10:33;;;;;;;3.17;1.75;;;25.70;69.90;;;;;;4921191;29;20039;-34
2023/07/17 12:12:59;;;;;;;3.00;1.80;;;25.60;69.30;;;;;;4914055;29;20044;-34
2023/07/17 12:15:26;;;;;;;3.15;1.80;;;25.20;68.80;;;;;;4913841;29;20044;-34
2023/07/17 12:17:52;;;;;;;3.72;1.98;;;24.90;68.40;;;;;;4912805;29;20134;-34
2023/07/17 12:20:20;;;;;;;3.90;2.00;;;24.40;68.90;;;;;;4913510;29;20063;-34
2023/07/17 12:22:48;;;;;;;3.05;1.83;;;23.70;69.30;;;;;;4905733;29;20494;-34
2023/07/17 12:25:13;;;;;;;3.78;2.40;;;23.10;70.60;;;;;;4915798;29;20040;-41
2023/07/17 12:27:41;;;;;;;6.65;2.97;;;22.40;74.80;;;;;;4914481;29;20047;-33
2023/07/17 12:30:08;;;;;;;6.82;2.50;;;21.70;85.70;;;;;;4908130;29;20037;-33
2023/07/17 12:32:34;;;;;;;7.35;2.85;;;21.10;94.30;;;;;;4906958;29;20056;-34
2023/07/17 12:35:00;;;;;;;5.68;2.55;;;20.60;98.50;;;;;;4913872;29;20040;-33
2023/07/17 12:37:28;;;;;;;4.82;2.85;;;20.10;99.90;;;;;;4907759;29;20243;-33
2023/07/17 12:39:54;;;;;;;6.03;2.60;;;19.90;99.90;;;;;;4909973;29;20040;-34
2023/07/17 12:42:19;;;;;;;3.63;2.42;;;19.70;99.90;;;;;;4909530;29;20200;-33
2023/07/17 12:44:45;;;;;;;4.82;2.40;;;19.30;99.90;;;;;;4912006;29;20032;-34